Aviation Digital Data Service (ADDS)

Output produced by METARs form (1230 UTC 01 March 2015)
found at http://aviationweather.gov/adds/metars/
 
KBFD 011140Z 0112/0212 16005KT 3/4SM -SN OVC015 
     FM011400 16004KT 3/4SM -SN BR OVC007 
     FM011800 22006KT 1/2SM -SN FG OVC003 
     FM020100 26008KT 1 1/2SM -SHSN BR OVC003 
     FM020600 29010KT 5SM -SHSN BR OVC006